sensor_id;sensor_type;location;lat;lon;timestamp;P1;P2;P0
47587;PMS5003;34356;45.788;12.046;2022-09-09T00:01:45;3;2;
47587;PMS5003;34356;45.788;12.046;2022-09-09T00:04:23;3;2;
47587;PMS5003;34356;45.788;12.046;2022-09-09T00:06:56;2;2;
47587;PMS5003;34356;45.788;12.046;2022-09-09T00:09:30;2;2;
47587;PMS5003;34356;45.788;12.046;2022-09-09T00:12:02;3;3;
47587;PMS5003;34356;45.788;12.046;2022-09-09T00:14:38;3;3;
47587;PMS5003;34356;45.788;12.046;2022-09-09T00:17:14;3;3;
47587;PMS5003;34356;45.788;12.046;2022-09-09T00:19:53;2;1;
47587;PMS5003;34356;45.788;12.046;2022-09-09T00:22:28;2;1;
47587;PMS5003;34356;45.788;12.046;2022-09-09T00:24:58;2;2;
47587;PMS5003;34356;45.788;12.046;2022-09-09T00:27:37;4;3;
47587;PMS5003;34356;45.788;12.046;2022-09-09T00:30:13;3;3;
47587;PMS5003;34356;45.788;12.046;2022-09-09T00:32:42;3;3;
47587;PMS5003;34356;45.788;12.046;2022-09-09T00:35:14;3;3;
47587;PMS5003;34356;45.788;12.046;2022-09-09T00:37:48;1;1;
47587;PMS5003;34356;45.788;12.046;2022-09-09T00:40:22;3;3;
47587;PMS5003;34356;45.788;12.046;2022-09-09T00:42:56;3;3;
47587;PMS5003;34356;45.788;12.046;2022-09-09T00:45:47;3;3;
47587;PMS5003;34356;45.788;12.046;2022-09-09T00:48:30;2;2;
47587;PMS5003;34356;45.788;12.046;2022-09-09T00:51:05;3;3;
47587;PMS5003;34356;45.788;12.046;2022-09-09T00:53:51;2;2;
47587;PMS5003;34356;45.788;12.046;2022-09-09T00:56:35;3;3;
47587;PMS5003;34356;45.788;12.046;2022-09-09T00:59:12;2;2;
47587;PMS5003;34356;45.788;12.046;2022-09-09T01:01:53;2;2;
47587;PMS5003;34356;45.788;12.046;2022-09-09T01:04:21;2;2;
47587;PMS5003;34356;45.788;12.046;2022-09-09T01:06:57;4;4;
47587;PMS5003;34356;45.788;12.046;2022-09-09T01:09:38;5;5;
47587;PMS5003;34356;45.788;12.046;2022-09-09T01:12:14;3;3;
47587;PMS5003;34356;45.788;12.046;2022-09-09T01:14:47;2;2;
47587;PMS5003;34356;45.788;12.046;2022-09-09T01:17:17;4;3;
47587;PMS5003;34356;45.788;12.046;2022-09-09T01:19:54;3;3;
47587;PMS5003;34356;45.788;12.046;2022-09-09T01:22:32;6;4;
47587;PMS5003;34356;45.788;12.046;2022-09-09T01:25:11;2;2;
47587;PMS5003;34356;45.788;12.046;2022-09-09T01:27:48;2;2;
47587;PMS5003;34356;45.788;12.046;2022-09-09T01:30:17;4;4;
47587;PMS5003;34356;45.788;12.046;2022-09-09T01:32:45;3;3;
47587;PMS5003;34356;45.788;12.046;2022-09-09T01:35:24;3;3;
47587;PMS5003;34356;45.788;12.046;2022-09-09T01:37:59;2;1;
47587;PMS5003;34356;45.788;12.046;2022-09-09T01:40:26;3;3;
47587;PMS5003;34356;45.788;12.046;2022-09-09T01:42:53;4;3;
47587;PMS5003;34356;45.788;12.046;2022-09-09T01:45:21;4;4;
47587;PMS5003;34356;45.788;12.046;2022-09-09T01:47:50;4;4;
47587;PMS5003;34356;45.788;12.046;2022-09-09T01:50:19;3;3;
47587;PMS5003;34356;45.788;12.046;2022-09-09T01:52:48;3;3;
47587;PMS5003;34356;45.788;12.046;2022-09-09T01:55:23;3;3;
47587;PMS5003;34356;45.788;12.046;2022-09-09T01:58:00;3;3;
47587;PMS5003;34356;45.788;12.046;2022-09-09T02:00:40;1;1;
47587;PMS5003;34356;45.788;12.046;2022-09-09T02:03:14;3;3;
47587;PMS5003;34356;45.788;12.046;2022-09-09T02:05:49;5;4;
47587;PMS5003;34356;45.788;12.046;2022-09-09T02:08:26;3;3;
47587;PMS5003;34356;45.788;12.046;2022-09-09T02:11:01;2;2;
47587;PMS5003;34356;45.788;12.046;2022-09-09T02:13:32;3;1;
47587;PMS5003;34356;45.788;12.046;2022-09-09T02:16:04;2;2;
47587;PMS5003;34356;45.788;12.046;2022-09-09T02:18:35;4;4;
47587;PMS5003;34356;45.788;12.046;2022-09-09T02:21:06;2;2;
47587;PMS5003;34356;45.788;12.046;2022-09-09T02:23:36;3;3;
47587;PMS5003;34356;45.788;12.046;2022-09-09T02:26:04;2;2;
47587;PMS5003;34356;45.788;12.046;2022-09-09T02:28:33;6;4;
47587;PMS5003;34356;45.788;12.046;2022-09-09T02:31:03;6;5;
47587;PMS5003;34356;45.788;12.046;2022-09-09T02:33:33;6;6;
47587;PMS5003;34356;45.788;12.046;2022-09-09T02:36:04;5;5;
47587;PMS5003;34356;45.788;12.046;2022-09-09T02:38:37;5;5;
47587;PMS5003;34356;45.788;12.046;2022-09-09T02:41:08;7;5;
47587;PMS5003;34356;45.788;12.046;2022-09-09T02:43:36;4;4;
47587;PMS5003;34356;45.788;12.046;2022-09-09T02:46:07;5;4;
47587;PMS5003;34356;45.788;12.046;2022-09-09T02:48:47;3;3;
47587;PMS5003;34356;45.788;12.046;2022-09-09T02:51:27;4;4;
47587;PMS5003;34356;45.788;12.046;2022-09-09T02:54:04;5;5;
47587;PMS5003;34356;45.788;12.046;2022-09-09T02:56:42;6;5;
47587;PMS5003;34356;45.788;12.046;2022-09-09T02:59:15;4;4;
47587;PMS5003;34356;45.788;12.046;2022-09-09T03:01:43;4;4;
47587;PMS5003;34356;45.788;12.046;2022-09-09T03:04:10;6;6;
47587;PMS5003;34356;45.788;12.046;2022-09-09T03:06:37;6;6;
47587;PMS5003;34356;45.788;12.046;2022-09-09T03:09:04;7;5;
47587;PMS5003;34356;45.788;12.046;2022-09-09T03:11:31;7;7;
47587;PMS5003;34356;45.788;12.046;2022-09-09T03:13:58;5;5;
47587;PMS5003;34356;45.788;12.046;2022-09-09T03:16:25;7;6;
47587;PMS5003;34356;45.788;12.046;2022-09-09T03:18:51;4;4;
47587;PMS5003;34356;45.788;12.046;2022-09-09T03:21:19;5;5;
47587;PMS5003;34356;45.788;12.046;2022-09-09T03:23:47;4;3;
47587;PMS5003;34356;45.788;12.046;2022-09-09T03:26:14;2;2;
47587;PMS5003;34356;45.788;12.046;2022-09-09T03:28:40;4;4;
47587;PMS5003;34356;45.788;12.046;2022-09-09T03:31:08;4;4;
47587;PMS5003;34356;45.788;12.046;2022-09-09T03:33:36;2;2;
47587;PMS5003;34356;45.788;12.046;2022-09-09T03:36:03;4;4;
47587;PMS5003;34356;45.788;12.046;2022-09-09T03:38:32;4;4;
47587;PMS5003;34356;45.788;12.046;2022-09-09T03:40:58;6;6;
47587;PMS5003;34356;45.788;12.046;2022-09-09T03:43:26;5;4;
47587;PMS5003;34356;45.788;12.046;2022-09-09T03:45:55;5;5;
47587;PMS5003;34356;45.788;12.046;2022-09-09T03:48:23;4;3;
47587;PMS5003;34356;45.788;12.046;2022-09-09T03:50:51;4;4;
47587;PMS5003;34356;45.788;12.046;2022-09-09T03:53:20;4;4;
47587;PMS5003;34356;45.788;12.046;2022-09-09T03:55:50;5;5;
47587;PMS5003;34356;45.788;12.046;2022-09-09T03:58:20;5;4;
47587;PMS5003;34356;45.788;12.046;2022-09-09T04:00:52;5;3;
47587;PMS5003;34356;45.788;12.046;2022-09-09T04:03:21;8;7;
47587;PMS5003;34356;45.788;12.046;2022-09-09T04:05:49;7;5;
47587;PMS5003;34356;45.788;12.046;2022-09-09T04:08:17;4;4;
47587;PMS5003;34356;45.788;12.046;2022-09-09T04:10:45;5;5;
47587;PMS5003;34356;45.788;12.046;2022-09-09T04:13:12;4;2;
47587;PMS5003;34356;45.788;12.046;2022-09-09T04:15:40;5;4;
47587;PMS5003;34356;45.788;12.046;2022-09-09T04:18:08;4;4;
47587;PMS5003;34356;45.788;12.046;2022-09-09T04:20:35;3;3;
47587;PMS5003;34356;45.788;12.046;2022-09-09T04:23:03;2;2;
47587;PMS5003;34356;45.788;12.046;2022-09-09T04:25:30;4;4;
47587;PMS5003;34356;45.788;12.046;2022-09-09T04:27:57;4;4;
47587;PMS5003;34356;45.788;12.046;2022-09-09T04:30:25;3;3;
47587;PMS5003;34356;45.788;12.046;2022-09-09T04:32:52;3;3;
47587;PMS5003;34356;45.788;12.046;2022-09-09T04:35:20;2;2;
47587;PMS5003;34356;45.788;12.046;2022-09-09T04:37:48;3;3;
47587;PMS5003;34356;45.788;12.046;2022-09-09T04:40:14;3;3;
47587;PMS5003;34356;45.788;12.046;2022-09-09T04:42:42;4;4;
47587;PMS5003;34356;45.788;12.046;2022-09-09T04:45:10;4;4;
47587;PMS5003;34356;45.788;12.046;2022-09-09T04:47:37;3;3;
47587;PMS5003;34356;45.788;12.046;2022-09-09T04:50:06;7;5;
47587;PMS5003;34356;45.788;12.046;2022-09-09T04:52:34;3;3;
47587;PMS5003;34356;45.788;12.046;2022-09-09T04:55:01;4;4;
47587;PMS5003;34356;45.788;12.046;2022-09-09T04:57:29;4;4;
47587;PMS5003;34356;45.788;12.046;2022-09-09T04:59:56;4;4;
47587;PMS5003;34356;45.788;12.046;2022-09-09T05:02:23;3;3;
47587;PMS5003;34356;45.788;12.046;2022-09-09T05:04:50;3;3;
47587;PMS5003;34356;45.788;12.046;2022-09-09T05:07:17;4;4;
47587;PMS5003;34356;45.788;12.046;2022-09-09T05:09:44;2;2;
47587;PMS5003;34356;45.788;12.046;2022-09-09T05:12:11;3;3;
47587;PMS5003;34356;45.788;12.046;2022-09-09T05:14:38;5;3;
47587;PMS5003;34356;45.788;12.046;2022-09-09T05:17:05;2;2;
47587;PMS5003;34356;45.788;12.046;2022-09-09T05:19:31;3;3;
47587;PMS5003;34356;45.788;12.046;2022-09-09T05:21:58;3;3;
47587;PMS5003;34356;45.788;12.046;2022-09-09T05:24:25;4;4;
47587;PMS5003;34356;45.788;12.046;2022-09-09T05:26:53;6;3;
47587;PMS5003;34356;45.788;12.046;2022-09-09T05:29:20;4;4;
47587;PMS5003;34356;45.788;12.046;2022-09-09T05:31:47;4;4;
47587;PMS5003;34356;45.788;12.046;2022-09-09T05:34:14;4;4;
47587;PMS5003;34356;45.788;12.046;2022-09-09T05:36:41;4;4;
47587;PMS5003;34356;45.788;12.046;2022-09-09T05:39:08;8;8;
47587;PMS5003;34356;45.788;12.046;2022-09-09T05:41:35;6;6;
47587;PMS5003;34356;45.788;12.046;2022-09-09T05:44:02;5;5;
47587;PMS5003;34356;45.788;12.046;2022-09-09T05:46:29;4;4;
47587;PMS5003;34356;45.788;12.046;2022-09-09T05:48:56;6;4;
47587;PMS5003;34356;45.788;12.046;2022-09-09T05:51:24;3;3;
47587;PMS5003;34356;45.788;12.046;2022-09-09T05:53:53;6;5;
47587;PMS5003;34356;45.788;12.046;2022-09-09T05:56:21;5;5;
47587;PMS5003;34356;45.788;12.046;2022-09-09T05:58:50;3;3;
47587;PMS5003;34356;45.788;12.046;2022-09-09T06:01:18;4;4;
47587;PMS5003;34356;45.788;12.046;2022-09-09T06:03:48;4;4;
47587;PMS5003;34356;45.788;12.046;2022-09-09T06:06:18;4;4;
47587;PMS5003;34356;45.788;12.046;2022-09-09T06:08:47;4;4;
47587;PMS5003;34356;45.788;12.046;2022-09-09T06:11:18;4;4;
47587;PMS5003;34356;45.788;12.046;2022-09-09T06:13:47;4;4;
47587;PMS5003;34356;45.788;12.046;2022-09-09T06:16:15;3;3;
47587;PMS5003;34356;45.788;12.046;2022-09-09T06:18:44;5;4;
47587;PMS5003;34356;45.788;12.046;2022-09-09T06:21:13;5;5;
47587;PMS5003;34356;45.788;12.046;2022-09-09T06:23:43;4;3;
47587;PMS5003;34356;45.788;12.046;2022-09-09T06:26:11;6;6;
47587;PMS5003;34356;45.788;12.046;2022-09-09T06:28:39;4;4;
47587;PMS5003;34356;45.788;12.046;2022-09-09T06:31:07;5;5;
47587;PMS5003;34356;45.788;12.046;2022-09-09T06:33:36;5;5;
47587;PMS5003;34356;45.788;12.046;2022-09-09T06:36:06;8;5;
47587;PMS5003;34356;45.788;12.046;2022-09-09T06:38:37;9;6;
47587;PMS5003;34356;45.788;12.046;2022-09-09T06:41:04;11;6;
47587;PMS5003;34356;45.788;12.046;2022-09-09T06:43:32;4;4;
47587;PMS5003;34356;45.788;12.046;2022-09-09T06:46:00;6;5;
47587;PMS5003;34356;45.788;12.046;2022-09-09T06:48:29;5;4;
47587;PMS5003;34356;45.788;12.046;2022-09-09T06:51:00;4;3;
47587;PMS5003;34356;45.788;12.046;2022-09-09T06:53:29;5;5;
47587;PMS5003;34356;45.788;12.046;2022-09-09T06:55:56;7;5;
47587;PMS5003;34356;45.788;12.046;2022-09-09T06:58:23;4;4;
47587;PMS5003;34356;45.788;12.046;2022-09-09T07:00:51;8;7;
47587;PMS5003;34356;45.788;12.046;2022-09-09T07:03:18;5;5;
47587;PMS5003;34356;45.788;12.046;2022-09-09T07:05:53;4;4;
47587;PMS5003;34356;45.788;12.046;2022-09-09T07:08:22;3;3;
47587;PMS5003;34356;45.788;12.046;2022-09-09T07:10:50;4;3;
47587;PMS5003;34356;45.788;12.046;2022-09-09T07:13:18;9;4;
47587;PMS5003;34356;45.788;12.046;2022-09-09T07:15:45;4;4;
47587;PMS5003;34356;45.788;12.046;2022-09-09T07:18:13;4;4;
47587;PMS5003;34356;45.788;12.046;2022-09-09T07:20:40;5;5;
47587;PMS5003;34356;45.788;12.046;2022-09-09T07:23:07;6;5;
47587;PMS5003;34356;45.788;12.046;2022-09-09T07:25:34;5;5;
47587;PMS5003;34356;45.788;12.046;2022-09-09T07:28:01;4;2;
47587;PMS5003;34356;45.788;12.046;2022-09-09T07:30:28;5;5;
47587;PMS5003;34356;45.788;12.046;2022-09-09T07:32:55;6;6;
47587;PMS5003;34356;45.788;12.046;2022-09-09T07:35:22;4;4;
47587;PMS5003;34356;45.788;12.046;2022-09-09T07:37:50;6;5;
47587;PMS5003;34356;45.788;12.046;2022-09-09T07:40:16;1;1;
47587;PMS5003;34356;45.788;12.046;2022-09-09T07:42:43;2;2;
47587;PMS5003;34356;45.788;12.046;2022-09-09T07:45:10;1;1;
47587;PMS5003;34356;45.788;12.046;2022-09-09T07:47:37;1;1;
47587;PMS5003;34356;45.788;12.046;2022-09-09T07:50:04;3;3;
47587;PMS5003;34356;45.788;12.046;2022-09-09T07:52:33;2;2;
47587;PMS5003;34356;45.788;12.046;2022-09-09T07:55:02;1;1;
47587;PMS5003;34356;45.788;12.046;2022-09-09T07:57:29;3;2;
47587;PMS5003;34356;45.788;12.046;2022-09-09T07:59:57;2;2;
47587;PMS5003;34356;45.788;12.046;2022-09-09T08:02:24;1;1;
47587;PMS5003;34356;45.788;12.046;2022-09-09T08:04:51;2;2;
47587;PMS5003;34356;45.788;12.046;2022-09-09T08:07:18;3;3;
47587;PMS5003;34356;45.788;12.046;2022-09-09T08:09:46;2;2;
47587;PMS5003;34356;45.788;12.046;2022-09-09T08:12:13;3;3;
47587;PMS5003;34356;45.788;12.046;2022-09-09T08:14:39;1;1;
47587;PMS5003;34356;45.788;12.046;2022-09-09T08:17:07;2;2;
47587;PMS5003;34356;45.788;12.046;2022-09-09T08:19:35;4;3;
47587;PMS5003;34356;45.788;12.046;2022-09-09T08:22:02;2;2;
47587;PMS5003;34356;45.788;12.046;2022-09-09T08:24:29;2;2;
47587;PMS5003;34356;45.788;12.046;2022-09-09T08:26:56;4;3;
47587;PMS5003;34356;45.788;12.046;2022-09-09T08:29:23;3;2;
47587;PMS5003;34356;45.788;12.046;2022-09-09T08:31:51;2;2;
47587;PMS5003;34356;45.788;12.046;2022-09-09T08:34:20;1;1;
47587;PMS5003;34356;45.788;12.046;2022-09-09T08:36:48;3;3;
47587;PMS5003;34356;45.788;12.046;2022-09-09T08:39:18;2;2;
47587;PMS5003;34356;45.788;12.046;2022-09-09T08:42:02;4;3;
47587;PMS5003;34356;45.788;12.046;2022-09-09T08:44:48;4;4;
47587;PMS5003;34356;45.788;12.046;2022-09-09T08:47:26;2;2;
47587;PMS5003;34356;45.788;12.046;2022-09-09T08:50:07;2;2;
47587;PMS5003;34356;45.788;12.046;2022-09-09T08:52:48;3;3;
47587;PMS5003;34356;45.788;12.046;2022-09-09T08:55:24;4;4;
47587;PMS5003;34356;45.788;12.046;2022-09-09T08:57:56;3;3;
47587;PMS5003;34356;45.788;12.046;2022-09-09T09:00:26;3;3;
47587;PMS5003;34356;45.788;12.046;2022-09-09T09:03:04;4;3;
47587;PMS5003;34356;45.788;12.046;2022-09-09T09:05:42;5;4;
47587;PMS5003;34356;45.788;12.046;2022-09-09T09:08:17;3;3;
47587;PMS5003;34356;45.788;12.046;2022-09-09T09:10:53;1;1;
47587;PMS5003;34356;45.788;12.046;2022-09-09T09:13:23;1;0;
47587;PMS5003;34356;45.788;12.046;2022-09-09T09:16:03;1;1;
47587;PMS5003;34356;45.788;12.046;2022-09-09T09:18:40;1;1;
47587;PMS5003;34356;45.788;12.046;2022-09-09T09:21:08;2;2;
47587;PMS5003;34356;45.788;12.046;2022-09-09T09:23:42;2;2;
47587;PMS5003;34356;45.788;12.046;2022-09-09T09:26:15;1;0;
47587;PMS5003;34356;45.788;12.046;2022-09-09T09:28:42;3;3;
47587;PMS5003;34356;45.788;12.046;2022-09-09T09:31:11;3;3;
47587;PMS5003;34356;45.788;12.046;2022-09-09T09:33:42;4;4;
47587;PMS5003;34356;45.788;12.046;2022-09-09T09:36:14;4;4;
47587;PMS5003;34356;45.788;12.046;2022-09-09T09:38:52;3;3;
47587;PMS5003;34356;45.788;12.046;2022-09-09T09:41:36;4;4;
47587;PMS5003;34356;45.788;12.046;2022-09-09T09:44:20;2;2;
47587;PMS5003;34356;45.788;12.046;2022-09-09T09:46:50;2;2;
47587;PMS5003;34356;45.788;12.046;2022-09-09T09:49:16;2;2;
47587;PMS5003;34356;45.788;12.046;2022-09-09T09:51:44;2;2;
47587;PMS5003;34356;45.788;12.046;2022-09-09T09:54:14;3;2;
47587;PMS5003;34356;45.788;12.046;2022-09-09T09:56:50;1;1;
47587;PMS5003;34356;45.788;12.046;2022-09-09T09:59:22;1;1;
47587;PMS5003;34356;45.788;12.046;2022-09-09T10:02:05;3;3;
47587;PMS5003;34356;45.788;12.046;2022-09-09T10:04:40;4;3;
47587;PMS5003;34356;45.788;12.046;2022-09-09T10:07:10;5;4;
47587;PMS5003;34356;45.788;12.046;2022-09-09T10:09:38;4;4;
47587;PMS5003;34356;45.788;12.046;2022-09-09T10:12:08;4;4;
47587;PMS5003;34356;45.788;12.046;2022-09-09T10:14:44;3;3;
47587;PMS5003;34356;45.788;12.046;2022-09-09T10:17:22;2;2;
47587;PMS5003;34356;45.788;12.046;2022-09-09T10:20:04;2;2;
47587;PMS5003;34356;45.788;12.046;2022-09-09T10:22:46;2;2;
47587;PMS5003;34356;45.788;12.046;2022-09-09T10:25:20;3;3;
47587;PMS5003;34356;45.788;12.046;2022-09-09T10:28:03;2;2;
47587;PMS5003;34356;45.788;12.046;2022-09-09T10:30:53;2;2;
47587;PMS5003;34356;45.788;12.046;2022-09-09T10:33:28;2;2;
47587;PMS5003;34356;45.788;12.046;2022-09-09T10:36:06;3;3;
47587;PMS5003;34356;45.788;12.046;2022-09-09T10:38:40;4;4;
47587;PMS5003;34356;45.788;12.046;2022-09-09T10:41:11;3;3;
47587;PMS5003;34356;45.788;12.046;2022-09-09T10:43:48;4;4;
47587;PMS5003;34356;45.788;12.046;2022-09-09T10:46:36;4;4;
47587;PMS5003;34356;45.788;12.046;2022-09-09T10:49:18;3;3;
47587;PMS5003;34356;45.788;12.046;2022-09-09T10:51:55;2;2;
47587;PMS5003;34356;45.788;12.046;2022-09-09T10:54:33;4;2;
47587;PMS5003;34356;45.788;12.046;2022-09-09T10:57:10;2;2;
47587;PMS5003;34356;45.788;12.046;2022-09-09T10:59:41;4;4;
47587;PMS5003;34356;45.788;12.046;2022-09-09T11:02:14;1;1;
47587;PMS5003;34356;45.788;12.046;2022-09-09T11:04:48;6;4;
47587;PMS5003;34356;45.788;12.046;2022-09-09T11:07:22;7;6;
47587;PMS5003;34356;45.788;12.046;2022-09-09T11:09:56;10;9;
47587;PMS5003;34356;45.788;12.046;2022-09-09T11:12:28;8;8;
47587;PMS5003;34356;45.788;12.046;2022-09-09T11:14:59;9;9;
47587;PMS5003;34356;45.788;12.046;2022-09-09T11:17:33;6;6;
47587;PMS5003;34356;45.788;12.046;2022-09-09T11:20:06;5;5;
47587;PMS5003;34356;45.788;12.046;2022-09-09T11:22:39;6;6;
47587;PMS5003;34356;45.788;12.046;2022-09-09T11:25:15;4;4;
47587;PMS5003;34356;45.788;12.046;2022-09-09T11:27:50;3;3;
47587;PMS5003;34356;45.788;12.046;2022-09-09T11:30:30;3;2;
47587;PMS5003;34356;45.788;12.046;2022-09-09T11:33:18;2;2;
47587;PMS5003;34356;45.788;12.046;2022-09-09T11:36:01;1;1;
47587;PMS5003;34356;45.788;12.046;2022-09-09T11:38:44;2;2;
47587;PMS5003;34356;45.788;12.046;2022-09-09T11:41:13;2;2;
47587;PMS5003;34356;45.788;12.046;2022-09-09T11:43:42;2;2;
47587;PMS5003;34356;45.788;12.046;2022-09-09T11:46:11;2;2;
47587;PMS5003;34356;45.788;12.046;2022-09-09T11:48:42;3;1;
47587;PMS5003;34356;45.788;12.046;2022-09-09T11:51:12;1;1;
47587;PMS5003;34356;45.788;12.046;2022-09-09T11:53:52;1;1;
47587;PMS5003;34356;45.788;12.046;2022-09-09T11:56:25;2;2;
47587;PMS5003;34356;45.788;12.046;2022-09-09T11:58:56;3;2;
47587;PMS5003;34356;45.788;12.046;2022-09-09T12:01:27;2;2;
47587;PMS5003;34356;45.788;12.046;2022-09-09T12:04:05;3;1;
47587;PMS5003;34356;45.788;12.046;2022-09-09T12:06:42;1;1;
47587;PMS5003;34356;45.788;12.046;2022-09-09T12:09:15;1;1;
47587;PMS5003;34356;45.788;12.046;2022-09-09T12:11:49;1;1;
47587;PMS5003;34356;45.788;12.046;2022-09-09T12:14:21;1;1;
47587;PMS5003;34356;45.788;12.046;2022-09-09T12:17:09;2;2;
47587;PMS5003;34356;45.788;12.046;2022-09-09T12:19:44;4;3;
47587;PMS5003;34356;45.788;12.046;2022-09-09T12:22:13;2;2;
47587;PMS5003;34356;45.788;12.046;2022-09-09T12:24:51;2;2;
47587;PMS5003;34356;45.788;12.046;2022-09-09T12:27:27;2;2;
47587;PMS5003;34356;45.788;12.046;2022-09-09T12:30:02;2;2;
47587;PMS5003;34356;45.788;12.046;2022-09-09T12:32:33;1;1;
47587;PMS5003;34356;45.788;12.046;2022-09-09T12:35:02;2;2;
47587;PMS5003;34356;45.788;12.046;2022-09-09T12:37:36;1;1;
47587;PMS5003;34356;45.788;12.046;2022-09-09T12:40:18;2;1;
47587;PMS5003;34356;45.788;12.046;2022-09-09T12:42:49;2;2;
47587;PMS5003;34356;45.788;12.046;2022-09-09T12:45:18;2;2;
47587;PMS5003;34356;45.788;12.046;2022-09-09T12:47:48;2;2;
47587;PMS5003;34356;45.788;12.046;2022-09-09T12:50:20;1;1;
47587;PMS5003;34356;45.788;12.046;2022-09-09T12:52:49;1;1;
47587;PMS5003;34356;45.788;12.046;2022-09-09T12:55:20;1;1;
47587;PMS5003;34356;45.788;12.046;2022-09-09T12:57:51;2;2;
47587;PMS5003;34356;45.788;12.046;2022-09-09T13:00:19;3;3;
47587;PMS5003;34356;45.788;12.046;2022-09-09T13:02:50;2;2;
47587;PMS5003;34356;45.788;12.046;2022-09-09T13:05:21;2;2;
47587;PMS5003;34356;45.788;12.046;2022-09-09T13:07:49;1;1;
47587;PMS5003;34356;45.788;12.046;2022-09-09T13:10:20;1;1;
47587;PMS5003;34356;45.788;12.046;2022-09-09T13:12:51;2;2;
47587;PMS5003;34356;45.788;12.046;2022-09-09T13:15:19;1;1;
47587;PMS5003;34356;45.788;12.046;2022-09-09T13:17:50;1;1;
47587;PMS5003;34356;45.788;12.046;2022-09-09T13:20:19;2;2;
47587;PMS5003;34356;45.788;12.046;2022-09-09T13:22:49;1;1;
47587;PMS5003;34356;45.788;12.046;2022-09-09T13:25:19;2;2;
47587;PMS5003;34356;45.788;12.046;2022-09-09T13:27:53;1;1;
47587;PMS5003;34356;45.788;12.046;2022-09-09T13:30:23;1;1;
47587;PMS5003;34356;45.788;12.046;2022-09-09T13:33:00;2;2;
47587;PMS5003;34356;45.788;12.046;2022-09-09T13:35:29;1;1;
47587;PMS5003;34356;45.788;12.046;2022-09-09T13:37:58;0;0;
47587;PMS5003;34356;45.788;12.046;2022-09-09T13:40:33;3;2;
47587;PMS5003;34356;45.788;12.046;2022-09-09T13:43:00;1;1;
47587;PMS5003;34356;45.788;12.046;2022-09-09T13:45:27;2;2;
47587;PMS5003;34356;45.788;12.046;2022-09-09T13:47:55;0;0;
47587;PMS5003;34356;45.788;12.046;2022-09-09T13:50:23;1;1;
47587;PMS5003;34356;45.788;12.046;2022-09-09T13:52:52;2;2;
47587;PMS5003;34356;45.788;12.046;2022-09-09T13:55:21;2;2;
47587;PMS5003;34356;45.788;12.046;2022-09-09T13:57:51;0;0;
47587;PMS5003;34356;45.788;12.046;2022-09-09T14:00:20;2;2;
47587;PMS5003;34356;45.788;12.046;2022-09-09T14:02:48;2;2;
47587;PMS5003;34356;45.788;12.046;2022-09-09T14:05:16;2;2;
47587;PMS5003;34356;45.788;12.046;2022-09-09T14:07:43;2;2;
47587;PMS5003;34356;45.788;12.046;2022-09-09T14:10:11;2;2;
47587;PMS5003;34356;45.788;12.046;2022-09-09T14:12:39;1;1;
47587;PMS5003;34356;45.788;12.046;2022-09-09T14:15:06;1;1;
47587;PMS5003;34356;45.788;12.046;2022-09-09T14:17:37;1;1;
47587;PMS5003;34356;45.788;12.046;2022-09-09T14:20:05;1;1;
47587;PMS5003;34356;45.788;12.046;2022-09-09T14:22:34;2;2;
47587;PMS5003;34356;45.788;12.046;2022-09-09T14:25:03;4;2;
47587;PMS5003;34356;45.788;12.046;2022-09-09T14:27:31;3;3;
47587;PMS5003;34356;45.788;12.046;2022-09-09T14:29:58;1;1;
47587;PMS5003;34356;45.788;12.046;2022-09-09T14:32:25;2;2;
47587;PMS5003;34356;45.788;12.046;2022-09-09T14:34:53;4;2;
47587;PMS5003;34356;45.788;12.046;2022-09-09T14:37:20;1;1;
47587;PMS5003;34356;45.788;12.046;2022-09-09T14:39:47;3;1;
47587;PMS5003;34356;45.788;12.046;2022-09-09T14:42:14;1;1;
47587;PMS5003;34356;45.788;12.046;2022-09-09T14:44:41;1;1;
47587;PMS5003;34356;45.788;12.046;2022-09-09T14:47:08;1;0;
47587;PMS5003;34356;45.788;12.046;2022-09-09T14:49:36;1;1;
47587;PMS5003;34356;45.788;12.046;2022-09-09T14:52:04;1;1;
47587;PMS5003;34356;45.788;12.046;2022-09-09T14:54:31;0;0;
47587;PMS5003;34356;45.788;12.046;2022-09-09T14:56:59;1;1;
47587;PMS5003;34356;45.788;12.046;2022-09-09T14:59:25;1;1;
47587;PMS5003;34356;45.788;12.046;2022-09-09T15:01:52;3;3;
47587;PMS5003;34356;45.788;12.046;2022-09-09T15:04:20;0;0;
47587;PMS5003;34356;45.788;12.046;2022-09-09T15:06:48;1;1;
47587;PMS5003;34356;45.788;12.046;2022-09-09T15:09:15;0;0;
47587;PMS5003;34356;45.788;12.046;2022-09-09T15:11:42;1;1;
47587;PMS5003;34356;45.788;12.046;2022-09-09T15:14:09;5;1;
47587;PMS5003;34356;45.788;12.046;2022-09-09T15:16:37;3;2;
47587;PMS5003;34356;45.788;12.046;2022-09-09T15:19:05;2;2;
47587;PMS5003;34356;45.788;12.046;2022-09-09T15:21:34;1;1;
47587;PMS5003;34356;45.788;12.046;2022-09-09T15:24:02;2;2;
47587;PMS5003;34356;45.788;12.046;2022-09-09T15:26:30;1;0;
47587;PMS5003;34356;45.788;12.046;2022-09-09T15:28:57;2;2;
47587;PMS5003;34356;45.788;12.046;2022-09-09T15:31:25;2;2;
47587;PMS5003;34356;45.788;12.046;2022-09-09T15:33:54;1;1;
47587;PMS5003;34356;45.788;12.046;2022-09-09T15:36:23;3;1;
47587;PMS5003;34356;45.788;12.046;2022-09-09T15:38:52;1;1;
47587;PMS5003;34356;45.788;12.046;2022-09-09T15:41:21;1;1;
47587;PMS5003;34356;45.788;12.046;2022-09-09T15:43:50;1;1;
47587;PMS5003;34356;45.788;12.046;2022-09-09T15:46:23;0;0;
47587;PMS5003;34356;45.788;12.046;2022-09-09T15:48:52;1;0;
47587;PMS5003;34356;45.788;12.046;2022-09-09T15:51:20;0;0;
47587;PMS5003;34356;45.788;12.046;2022-09-09T15:53:49;2;1;
47587;PMS5003;34356;45.788;12.046;2022-09-09T15:56:21;0;0;
47587;PMS5003;34356;45.788;12.046;2022-09-09T15:58:48;0;0;
47587;PMS5003;34356;45.788;12.046;2022-09-09T16:01:16;0;0;
47587;PMS5003;34356;45.788;12.046;2022-09-09T16:03:43;1;1;
47587;PMS5003;34356;45.788;12.046;2022-09-09T16:06:10;1;1;
47587;PMS5003;34356;45.788;12.046;2022-09-09T16:08:37;1;1;
47587;PMS5003;34356;45.788;12.046;2022-09-09T16:11:06;1;1;
47587;PMS5003;34356;45.788;12.046;2022-09-09T16:13:35;2;2;
47587;PMS5003;34356;45.788;12.046;2022-09-09T16:16:02;1;1;
47587;PMS5003;34356;45.788;12.046;2022-09-09T16:18:34;1;1;
47587;PMS5003;34356;45.788;12.046;2022-09-09T16:21:02;2;2;
47587;PMS5003;34356;45.788;12.046;2022-09-09T16:23:29;0;0;
47587;PMS5003;34356;45.788;12.046;2022-09-09T16:25:57;1;1;
47587;PMS5003;34356;45.788;12.046;2022-09-09T16:28:25;1;1;
47587;PMS5003;34356;45.788;12.046;2022-09-09T16:30:52;4;1;
47587;PMS5003;34356;45.788;12.046;2022-09-09T16:33:19;2;1;
47587;PMS5003;34356;45.788;12.046;2022-09-09T16:35:47;1;1;
47587;PMS5003;34356;45.788;12.046;2022-09-09T16:38:15;0;0;
47587;PMS5003;34356;45.788;12.046;2022-09-09T16:40:41;1;1;
47587;PMS5003;34356;45.788;12.046;2022-09-09T16:43:08;0;0;
47587;PMS5003;34356;45.788;12.046;2022-09-09T16:45:41;0;0;
47587;PMS5003;34356;45.788;12.046;2022-09-09T16:48:09;1;1;
47587;PMS5003;34356;45.788;12.046;2022-09-09T16:50:36;0;0;
47587;PMS5003;34356;45.788;12.046;2022-09-09T16:53:03;0;0;
47587;PMS5003;34356;45.788;12.046;2022-09-09T16:55:31;1;1;
47587;PMS5003;34356;45.788;12.046;2022-09-09T16:57:59;1;1;